Time;durP1;ratioP1;P1;durP2;ratioP2;P2;SDS_P1;SDS_P2;PMS_P1;PMS_P2;Temp;Humidity;BMP_temperature;BMP_pressure;BME280_temperature;BME280_humidity;BME280_pressure;Samples;Min_cycle;Max_cycle;Signal;HPM_P1;HPM_P2
2021/12/23 00:01:10;;;;;;;22.05;19.05;;;;;;;;;;5037195;28;20831;-59
2021/12/23 00:03:35;;;;;;;21.17;17.70;;;;;;;;;;5038525;28;20021;-59
2021/12/23 00:06:00;;;;;;;24.10;18.40;;;;;;;;;;5037100;28;20521;-59
2021/12/23 00:08:26;;;;;;;30.15;21.75;;;;;;;;;;5038026;28;20452;-59
2021/12/23 00:10:51;;;;;;;27.43;20.03;;;;;;;;;;5037085;28;20029;-59
2021/12/23 00:13:16;;;;;;;26.30;21.20;;;;;;;;;;5039106;28;21000;-59
2021/12/23 00:16:03;;;;;;;31.88;19.08;;;;;;;;;;5038328;28;20468;-59
2021/12/23 00:23:46;;;;;;;26.05;20.30;;;;;;;;;;5041140;28;20033;-59
2021/12/23 00:26:11;;;;;;;28.50;19.27;;;;;;;;;;5037381;28;20240;-59
2021/12/23 00:28:37;;;;;;;27.27;18.23;;;;;;;;;;5040372;28;20431;-59
2021/12/23 00:31:03;;;;;;;28.17;21.57;;;;;;;;;;5036389;28;20455;-59
2021/12/23 00:33:28;;;;;;;26.60;20.92;;;;;;;;;;5039325;28;20456;-59
2021/12/23 00:35:55;;;;;;;23.73;18.10;;;;;;;;;;5041424;28;20112;-59
2021/12/23 00:38:27;;;;;;;25.98;20.13;;;;;;;;;;5041802;28;20381;-59
2021/12/23 00:40:52;;;;;;;23.73;18.95;;;;;;;;;;5043394;28;20395;-59
2021/12/23 00:43:18;;;;;;;26.20;18.90;;;;;;;;;;5041974;28;20097;-59
2021/12/23 00:45:43;;;;;;;26.65;19.95;;;;;;;;;;5041021;28;20041;-59
2021/12/23 00:48:08;;;;;;;31.38;22.95;;;;;;;;;;5041397;28;20593;-59
2021/12/23 00:50:33;;;;;;;27.48;19.63;;;;;;;;;;5041653;28;20029;-60
2021/12/23 00:53:01;;;;;;;27.40;20.43;;;;;;;;;;5043020;28;20033;-59
2021/12/23 00:55:26;;;;;;;23.30;19.67;;;;;;;;;;5040785;28;20463;-60
2021/12/23 00:57:51;;;;;;;28.25;18.48;;;;;;;;;;5042565;28;20016;-60
2021/12/23 01:00:19;;;;;;;24.52;19.00;;;;;;;;;;5041750;28;20043;-60
2021/12/23 01:02:45;;;;;;;25.95;20.10;;;;;;;;;;5041653;28;20051;-60
2021/12/23 01:05:10;;;;;;;22.27;18.33;;;;;;;;;;5042870;28;20033;-60
2021/12/23 01:07:36;;;;;;;29.65;20.80;;;;;;;;;;5041236;28;20022;-59
2021/12/23 01:10:01;;;;;;;26.88;20.17;;;;;;;;;;5041448;28;20037;-59
2021/12/23 01:12:33;;;;;;;25.67;19.55;;;;;;;;;;5043374;28;20041;-60
2021/12/23 01:15:49;;;;;;;24.70;19.17;;;;;;;;;;5041075;28;20041;-60
2021/12/23 01:17:55;;;;;;;27.65;20.77;;;;;;;;;;5039247;28;20087;-60
2021/12/23 01:20:26;;;;;;;23.38;18.55;;;;;;;;;;5040069;28;20030;-60
2021/12/23 01:22:51;;;;;;;23.52;18.75;;;;;;;;;;5043869;28;20017;-60
2021/12/23 01:25:16;;;;;;;25.70;18.85;;;;;;;;;;5039638;28;20044;-60
2021/12/23 01:27:42;;;;;;;32.53;21.02;;;;;;;;;;5042561;28;20021;-60
2021/12/23 01:30:07;;;;;;;31.80;20.80;;;;;;;;;;5040096;28;20069;-60
2021/12/23 01:32:32;;;;;;;27.65;20.90;;;;;;;;;;5041360;28;20112;-60
2021/12/23 01:34:57;;;;;;;26.60;19.20;;;;;;;;;;5040268;28;20041;-60
2021/12/23 01:37:22;;;;;;;27.27;20.23;;;;;;;;;;5040956;28;20991;-60
2021/12/23 01:39:48;;;;;;;29.67;20.17;;;;;;;;;;5041162;28;20459;-61
2021/12/23 01:42:13;;;;;;;30.80;21.00;;;;;;;;;;5040890;28;20462;-60
2021/12/23 01:44:38;;;;;;;27.85;20.15;;;;;;;;;;5039642;28;20440;-60
2021/12/23 01:47:03;;;;;;;27.93;20.50;;;;;;;;;;5041895;28;20388;-59
2021/12/23 01:49:28;;;;;;;26.55;20.30;;;;;;;;;;5039172;28;20464;-59
2021/12/23 01:51:54;;;;;;;28.08;22.08;;;;;;;;;;5040222;28;20499;-59
2021/12/23 01:54:19;;;;;;;32.03;22.53;;;;;;;;;;5040596;28;20035;-60
2021/12/23 01:56:44;;;;;;;27.85;19.90;;;;;;;;;;5040967;28;20464;-60
2021/12/23 01:59:10;;;;;;;25.42;19.75;;;;;;;;;;5039267;28;21010;-59
2021/12/23 02:01:41;;;;;;;30.17;21.67;;;;;;;;;;5041882;28;20043;-59
2021/12/23 02:04:06;;;;;;;30.63;23.10;;;;;;;;;;5038562;28;20023;-59
2021/12/23 02:06:31;;;;;;;29.08;21.73;;;;;;;;;;5041563;28;20017;-59
2021/12/23 02:08:56;;;;;;;25.40;19.43;;;;;;;;;;5039646;28;20033;-59
2021/12/23 02:11:21;;;;;;;32.20;22.80;;;;;;;;;;5040756;28;20765;-60
2021/12/23 02:13:47;;;;;;;31.27;24.17;;;;;;;;;;5040845;28;20017;-60
2021/12/23 02:16:12;;;;;;;28.63;19.67;;;;;;;;;;5040310;28;20041;-59
2021/12/23 02:18:37;;;;;;;29.85;22.40;;;;;;;;;;5040397;28;20057;-59
2021/12/23 02:21:03;;;;;;;24.70;20.00;;;;;;;;;;5039001;28;20048;-60
2021/12/23 02:23:29;;;;;;;37.72;23.58;;;;;;;;;;5042405;28;20021;-60
2021/12/23 02:25:54;;;;;;;27.20;21.95;;;;;;;;;;5039145;28;20488;-60
2021/12/23 02:28:20;;;;;;;27.57;19.13;;;;;;;;;;5042335;28;20025;-60
2021/12/23 02:30:51;;;;;;;22.98;19.25;;;;;;;;;;5038958;28;20482;-60
2021/12/23 02:33:16;;;;;;;28.55;20.85;;;;;;;;;;5041433;28;20013;-60
2021/12/23 02:35:41;;;;;;;30.50;21.98;;;;;;;;;;5039599;28;20091;-60
2021/12/23 02:38:06;;;;;;;29.67;22.00;;;;;;;;;;5040440;28;20507;-60
2021/12/23 02:40:33;;;;;;;33.47;21.10;;;;;;;;;;5039669;28;20507;-60
2021/12/23 02:43:11;;;;;;;31.42;22.25;;;;;;;;;;5040665;28;20558;-60
2021/12/23 02:45:36;;;;;;;29.77;23.58;;;;;;;;;;5039881;28;20033;-60
2021/12/23 02:48:02;;;;;;;24.27;21.03;;;;;;;;;;5039918;28;20029;-60
2021/12/23 02:50:27;;;;;;;26.52;22.17;;;;;;;;;;5039082;28;20479;-60
2021/12/23 02:52:53;;;;;;;34.95;23.73;;;;;;;;;;5040045;28;20528;-60
2021/12/23 02:55:19;;;;;;;34.03;22.40;;;;;;;;;;5040001;28;20033;-60
2021/12/23 02:57:45;;;;;;;29.75;22.00;;;;;;;;;;5040203;28;20163;-60
2021/12/23 03:00:10;;;;;;;32.67;24.15;;;;;;;;;;5037656;28;20042;-59
2021/12/23 03:02:39;;;;;;;31.98;23.40;;;;;;;;;;5041205;28;20052;-59
2021/12/23 03:05:05;;;;;;;30.40;21.70;;;;;;;;;;5038857;28;20088;-59
2021/12/23 03:07:30;;;;;;;30.42;24.02;;;;;;;;;;5038903;28;20550;-59
2021/12/23 03:09:55;;;;;;;26.10;20.07;;;;;;;;;;5039386;28;20033;-59
2021/12/23 03:12:20;;;;;;;24.70;21.05;;;;;;;;;;5040311;28;20490;-59
2021/12/23 03:14:45;;;;;;;28.38;23.38;;;;;;;;;;5038776;28;20100;-59
2021/12/23 03:17:11;;;;;;;29.33;22.98;;;;;;;;;;5040712;28;20084;-59
2021/12/23 03:19:36;;;;;;;32.38;22.80;;;;;;;;;;5036217;28;20029;-59
2021/12/23 03:22:01;;;;;;;30.17;20.83;;;;;;;;;;5039201;28;20520;-60
2021/12/23 03:24:27;;;;;;;33.20;22.17;;;;;;;;;;5039697;28;20455;-60
2021/12/23 03:26:52;;;;;;;29.48;22.20;;;;;;;;;;5039880;28;20079;-60
2021/12/23 03:29:17;;;;;;;32.55;22.55;;;;;;;;;;5039502;28;20029;-59
2021/12/23 03:31:42;;;;;;;28.83;21.73;;;;;;;;;;5039563;28;20025;-60
2021/12/23 03:34:07;;;;;;;29.63;20.43;;;;;;;;;;5037339;28;20474;-59
2021/12/23 03:36:34;;;;;;;33.30;22.20;;;;;;;;;;5041210;28;20546;-60
2021/12/23 03:38:59;;;;;;;30.50;21.13;;;;;;;;;;5036513;28;20433;-60
2021/12/23 03:41:24;;;;;;;26.67;21.30;;;;;;;;;;5037828;28;20017;-60
2021/12/23 03:43:49;;;;;;;27.13;19.98;;;;;;;;;;5041204;28;20432;-59
2021/12/23 03:46:14;;;;;;;28.87;21.30;;;;;;;;;;5037989;28;20030;-59
2021/12/23 03:48:39;;;;;;;32.65;23.52;;;;;;;;;;5038803;28;20484;-59
2021/12/23 03:51:05;;;;;;;33.07;26.40;;;;;;;;;;5037398;28;20499;-59
2021/12/23 03:53:30;;;;;;;28.20;21.75;;;;;;;;;;5041324;28;20617;-59
2021/12/23 03:55:55;;;;;;;30.95;22.40;;;;;;;;;;5038088;28;20116;-60
2021/12/23 03:58:21;;;;;;;34.20;25.90;;;;;;;;;;5040239;28;20043;-59
2021/12/23 04:00:46;;;;;;;28.88;22.25;;;;;;;;;;5038363;28;20479;-59
2021/12/23 04:03:12;;;;;;;27.35;20.70;;;;;;;;;;5037634;28;20075;-59
2021/12/23 04:05:37;;;;;;;32.08;22.77;;;;;;;;;;5036840;28;20095;-59
2021/12/23 04:08:02;;;;;;;31.60;22.70;;;;;;;;;;5039949;28;20112;-60
2021/12/23 04:10:27;;;;;;;34.30;22.88;;;;;;;;;;5040642;28;20488;-59
2021/12/23 04:12:53;;;;;;;39.17;25.10;;;;;;;;;;5042348;28;20029;-61
2021/12/23 04:15:18;;;;;;;32.80;22.15;;;;;;;;;;5043416;28;20558;-61
2021/12/23 04:17:44;;;;;;;29.88;24.25;;;;;;;;;;5043975;28;20044;-60
2021/12/23 04:20:16;;;;;;;39.88;22.67;;;;;;;;;;5041425;28;20065;-60
2021/12/23 04:22:42;;;;;;;35.05;23.30;;;;;;;;;;5041424;28;20657;-60
2021/12/23 04:25:07;;;;;;;37.97;26.05;;;;;;;;;;5045292;28;20504;-61
2021/12/23 04:27:33;;;;;;;31.48;26.30;;;;;;;;;;5042048;28;20052;-61
2021/12/23 04:29:58;;;;;;;32.65;24.33;;;;;;;;;;5041869;28;20644;-59
2021/12/23 04:32:23;;;;;;;30.83;20.47;;;;;;;;;;5042650;28;20483;-59
2021/12/23 04:34:48;;;;;;;31.97;24.70;;;;;;;;;;5040798;28;20472;-59
2021/12/23 04:37:13;;;;;;;42.10;25.58;;;;;;;;;;5042530;28;20439;-59
2021/12/23 04:39:39;;;;;;;34.60;25.85;;;;;;;;;;5042781;28;20021;-59
2021/12/23 04:42:04;;;;;;;36.93;28.50;;;;;;;;;;5041424;28;20380;-59
2021/12/23 04:44:29;;;;;;;35.70;24.50;;;;;;;;;;5039919;28;20484;-59
2021/12/23 04:46:54;;;;;;;33.95;23.92;;;;;;;;;;5044542;28;20017;-59
2021/12/23 04:49:22;;;;;;;32.80;25.40;;;;;;;;;;5041372;28;20033;-59
2021/12/23 04:51:47;;;;;;;38.97;27.10;;;;;;;;;;5041503;28;20142;-59
2021/12/23 04:54:13;;;;;;;33.25;26.13;;;;;;;;;;5040954;28;20029;-58
2021/12/23 04:56:38;;;;;;;39.13;25.75;;;;;;;;;;5043423;28;20016;-58
2021/12/23 04:59:03;;;;;;;32.80;24.03;;;;;;;;;;5041757;28;20025;-58
2021/12/23 05:01:29;;;;;;;32.10;25.40;;;;;;;;;;5041508;28;20421;-60
2021/12/23 05:03:55;;;;;;;41.53;29.00;;;;;;;;;;5035015;28;20543;-59
2021/12/23 05:06:20;;;;;;;38.00;27.45;;;;;;;;;;5043308;28;20103;-60
2021/12/23 05:08:45;;;;;;;37.03;27.27;;;;;;;;;;5039967;28;20100;-58
2021/12/23 05:11:10;;;;;;;34.28;25.98;;;;;;;;;;5039473;28;20064;-57
2021/12/23 05:13:35;;;;;;;38.63;26.98;;;;;;;;;;5041757;28;20024;-57
2021/12/23 05:16:01;;;;;;;43.08;26.35;;;;;;;;;;5041393;28;20072;-57
2021/12/23 05:18:26;;;;;;;41.37;28.17;;;;;;;;;;5042630;28;20029;-57
2021/12/23 05:20:51;;;;;;;36.30;27.73;;;;;;;;;;5037966;28;20456;-57
2021/12/23 05:23:16;;;;;;;43.60;30.93;;;;;;;;;;5044386;28;20059;-57
2021/12/23 05:25:41;;;;;;;37.42;31.08;;;;;;;;;;5041122;28;20998;-57
2021/12/23 05:28:06;;;;;;;36.13;27.60;;;;;;;;;;5043405;28;20049;-57
2021/12/23 05:30:32;;;;;;;42.23;29.17;;;;;;;;;;5039942;28;20687;-57
2021/12/23 05:32:57;;;;;;;36.58;29.05;;;;;;;;;;5038321;28;20028;-57
2021/12/23 05:35:23;;;;;;;41.05;28.23;;;;;;;;;;5039384;28;20094;-57
2021/12/23 05:37:48;;;;;;;41.83;29.42;;;;;;;;;;5042451;28;20032;-57
2021/12/23 05:40:15;;;;;;;35.08;28.02;;;;;;;;;;5040774;28;20110;-57
2021/12/23 05:42:40;;;;;;;43.50;32.72;;;;;;;;;;5042046;28;20045;-57
2021/12/23 05:45:05;;;;;;;49.35;32.20;;;;;;;;;;5040730;28;20464;-57
2021/12/23 05:47:30;;;;;;;40.80;28.80;;;;;;;;;;5042690;28;20025;-57
2021/12/23 05:49:56;;;;;;;46.28;32.60;;;;;;;;;;5039463;28;20037;-57
2021/12/23 05:52:21;;;;;;;41.23;30.17;;;;;;;;;;5042617;28;20044;-57
2021/12/23 05:54:46;;;;;;;47.30;33.17;;;;;;;;;;5041200;28;20440;-57
2021/12/23 05:57:11;;;;;;;50.50;32.40;;;;;;;;;;5040272;28;20028;-56
2021/12/23 05:59:36;;;;;;;45.38;30.55;;;;;;;;;;5041322;28;20459;-56
2021/12/23 06:02:04;;;;;;;42.88;29.63;;;;;;;;;;5041882;28;20029;-56
2021/12/23 06:04:30;;;;;;;50.13;31.73;;;;;;;;;;5039123;28;20618;-57
2021/12/23 06:06:55;;;;;;;48.58;34.88;;;;;;;;;;5042987;28;20104;-57
2021/12/23 06:09:20;;;;;;;47.67;29.80;;;;;;;;;;5040114;28;20025;-57
2021/12/23 06:11:45;;;;;;;45.90;33.03;;;;;;;;;;5041098;28;20434;-57
2021/12/23 06:14:10;;;;;;;42.13;29.98;;;;;;;;;;5041687;28;20488;-57
2021/12/23 06:16:36;;;;;;;41.53;31.93;;;;;;;;;;5043108;28;20045;-56
2021/12/23 06:19:01;;;;;;;41.27;28.87;;;;;;;;;;5043954;28;20437;-56
2021/12/23 06:21:29;;;;;;;51.07;32.03;;;;;;;;;;5041784;28;20473;-57
2021/12/23 06:23:54;;;;;;;55.53;35.03;;;;;;;;;;5041539;28;20442;-57
2021/12/23 06:26:19;;;;;;;48.38;36.72;;;;;;;;;;5042596;28;20084;-56
2021/12/23 06:28:45;;;;;;;51.22;32.15;;;;;;;;;;5041829;28;20027;-56
2021/12/23 06:31:10;;;;;;;56.05;33.88;;;;;;;;;;5040155;28;20051;-57
2021/12/23 06:33:35;;;;;;;50.63;29.63;;;;;;;;;;5039978;28;20404;-56
2021/12/23 06:36:00;;;;;;;49.05;32.80;;;;;;;;;;5039072;28;20546;-57
2021/12/23 06:38:25;;;;;;;46.73;33.10;;;;;;;;;;5041642;28;20017;-57
2021/12/23 06:40:50;;;;;;;51.60;31.77;;;;;;;;;;5039990;28;21018;-57
2021/12/23 06:43:16;;;;;;;44.67;35.37;;;;;;;;;;5040600;28;20435;-56
2021/12/23 06:45:41;;;;;;;47.35;30.52;;;;;;;;;;5040568;28;20444;-56
2021/12/23 06:48:06;;;;;;;45.00;31.42;;;;;;;;;;5040572;28;20151;-57
2021/12/23 06:50:31;;;;;;;50.97;35.20;;;;;;;;;;5039137;28;20044;-56
2021/12/23 06:52:58;;;;;;;52.67;32.43;;;;;;;;;;5042212;28;20024;-56
2021/12/23 06:55:23;;;;;;;47.45;30.85;;;;;;;;;;5038362;28;21071;-56
2021/12/23 06:57:53;;;;;;;48.63;33.90;;;;;;;;;;5041029;28;20135;-57
2021/12/23 07:00:19;;;;;;;52.08;32.92;;;;;;;;;;5040626;28;20094;-56
2021/12/23 07:02:44;;;;;;;48.15;33.03;;;;;;;;;;5039884;28;20013;-56
2021/12/23 07:05:10;;;;;;;46.28;33.58;;;;;;;;;;5039429;28;20429;-56
2021/12/23 07:10:15;;;;;;;48.05;33.95;;;;;;;;;;5040233;28;20034;-57
2021/12/23 07:12:41;;;;;;;49.65;33.35;;;;;;;;;;5039856;28;20429;-56
2021/12/23 07:15:06;;;;;;;56.20;36.00;;;;;;;;;;5031656;28;20033;-56
2021/12/23 07:17:32;;;;;;;46.92;35.08;;;;;;;;;;5030682;28;20013;-57
2021/12/23 07:19:57;;;;;;;50.20;33.20;;;;;;;;;;5029508;28;20655;-57
2021/12/23 07:22:22;;;;;;;49.78;32.72;;;;;;;;;;5030924;28;20511;-56
2021/12/23 07:24:47;;;;;;;59.55;33.85;;;;;;;;;;5035949;28;20032;-56
2021/12/23 07:27:12;;;;;;;44.60;33.95;;;;;;;;;;5051120;28;20466;-56
2021/12/23 07:29:37;;;;;;;45.42;33.15;;;;;;;;;;5039932;28;20029;-57
2021/12/23 07:32:04;;;;;;;46.13;34.60;;;;;;;;;;5033338;28;20033;-57
2021/12/23 07:34:30;;;;;;;50.72;33.92;;;;;;;;;;5029147;28;20059;-56
2021/12/23 07:36:55;;;;;;;52.72;35.35;;;;;;;;;;5031167;28;20284;-56
2021/12/23 07:39:20;;;;;;;68.03;41.97;;;;;;;;;;5029528;28;20049;-57
2021/12/23 07:41:45;;;;;;;58.30;37.60;;;;;;;;;;5030733;28;20466;-57
2021/12/23 07:44:20;;;;;;;49.40;34.13;;;;;;;;;;5035139;28;20480;-57
2021/12/23 07:46:45;;;;;;;57.85;36.25;;;;;;;;;;5037087;28;20736;-57
2021/12/23 07:49:10;;;;;;;46.92;35.08;;;;;;;;;;5036209;28;20049;-56
2021/12/23 07:51:35;;;;;;;51.00;34.88;;;;;;;;;;5037197;28;20439;-57
2021/12/23 07:54:00;;;;;;;47.90;34.67;;;;;;;;;;5035949;28;20021;-57
2021/12/23 07:56:25;;;;;;;48.23;35.27;;;;;;;;;;5037240;28;20435;-57
2021/12/23 07:58:51;;;;;;;53.70;37.10;;;;;;;;;;5037717;28;20435;-58
2021/12/23 08:01:17;;;;;;;53.05;34.80;;;;;;;;;;5035655;28;20915;-58
2021/12/23 08:03:42;;;;;;;49.65;34.42;;;;;;;;;;5037388;28;20021;-58
2021/12/23 08:06:07;;;;;;;53.40;34.88;;;;;;;;;;5036076;28;20034;-58
2021/12/23 08:08:32;;;;;;;48.50;31.90;;;;;;;;;;5037138;28;20388;-57
2021/12/23 08:10:57;;;;;;;52.97;35.85;;;;;;;;;;5035878;28;20415;-57
2021/12/23 08:13:22;;;;;;;59.43;36.10;;;;;;;;;;5037112;28;20091;-57
2021/12/23 08:15:48;;;;;;;55.13;36.60;;;;;;;;;;5035482;28;20801;-57
2021/12/23 08:18:13;;;;;;;55.10;33.47;;;;;;;;;;5037602;28;20424;-57
2021/12/23 08:20:38;;;;;;;45.28;32.60;;;;;;;;;;5035629;28;20068;-57
2021/12/23 08:23:04;;;;;;;50.37;31.57;;;;;;;;;;5037024;28;20013;-57
2021/12/23 08:25:29;;;;;;;47.22;35.38;;;;;;;;;;5048098;28;20466;-57
2021/12/23 08:27:55;;;;;;;46.15;31.20;;;;;;;;;;5057494;28;20028;-57
2021/12/23 08:30:20;;;;;;;41.38;32.53;;;;;;;;;;5055755;28;20068;-57
2021/12/23 08:32:47;;;;;;;46.72;31.17;;;;;;;;;;5056732;28;20047;-57
2021/12/23 08:35:13;;;;;;;44.45;33.20;;;;;;;;;;5055847;28;20029;-57
2021/12/23 08:37:39;;;;;;;45.17;31.38;;;;;;;;;;5057035;28;20071;-57
2021/12/23 08:40:06;;;;;;;47.75;33.65;;;;;;;;;;5055296;28;20036;-57
2021/12/23 08:42:31;;;;;;;46.70;33.28;;;;;;;;;;5057075;28;20040;-57
2021/12/23 08:44:56;;;;;;;47.28;35.20;;;;;;;;;;5055657;28;20480;-57
2021/12/23 08:47:21;;;;;;;48.05;34.38;;;;;;;;;;5056936;28;20017;-57
2021/12/23 08:49:47;;;;;;;46.72;35.17;;;;;;;;;;5055742;28;20114;-57
2021/12/23 08:52:12;;;;;;;51.58;36.47;;;;;;;;;;5056874;28;20111;-57
2021/12/23 08:54:38;;;;;;;53.33;36.40;;;;;;;;;;5053831;28;20404;-57
2021/12/23 08:57:07;;;;;;;48.25;35.80;;;;;;;;;;5053628;28;20091;-57
2021/12/23 08:59:32;;;;;;;50.00;34.65;;;;;;;;;;5052122;28;20041;-57
2021/12/23 09:01:57;;;;;;;49.35;34.80;;;;;;;;;;5053386;28;20031;-56
2021/12/23 09:04:22;;;;;;;57.27;35.60;;;;;;;;;;5052296;28;20032;-57
2021/12/23 09:06:47;;;;;;;48.70;34.42;;;;;;;;;;5053509;28;20785;-57
2021/12/23 09:09:13;;;;;;;50.72;38.67;;;;;;;;;;5051831;28;20029;-56
2021/12/23 09:11:38;;;;;;;51.00;35.40;;;;;;;;;;5053448;28;20025;-56
2021/12/23 09:14:05;;;;;;;58.63;35.53;;;;;;;;;;5052444;28;20028;-57
2021/12/23 09:16:30;;;;;;;50.50;35.25;;;;;;;;;;5053037;28;20025;-57
2021/12/23 09:18:55;;;;;;;45.50;33.13;;;;;;;;;;5051988;28;20357;-56
2021/12/23 09:21:20;;;;;;;50.08;36.33;;;;;;;;;;5053426;28;20028;-57
2021/12/23 09:23:45;;;;;;;50.83;36.50;;;;;;;;;;5052983;28;20017;-57
2021/12/23 09:26:11;;;;;;;56.95;38.50;;;;;;;;;;5051653;28;20512;-57
2021/12/23 09:33:49;;;;;;;56.00;35.13;;;;;;;;;;5053489;28;20086;-56
2021/12/23 09:36:15;;;;;;;46.75;34.75;;;;;;;;;;5051512;28;20040;-56
2021/12/23 09:38:40;;;;;;;49.03;36.33;;;;;;;;;;5052941;28;20388;-57
2021/12/23 09:41:08;;;;;;;55.80;38.92;;;;;;;;;;5051604;28;20373;-57
2021/12/23 09:43:36;;;;;;;50.33;34.22;;;;;;;;;;5053003;28;20025;-57
2021/12/23 09:46:01;;;;;;;48.45;38.13;;;;;;;;;;5051147;28;20032;-56
2021/12/23 09:48:27;;;;;;;55.75;37.50;;;;;;;;;;5052991;28;20013;-57
2021/12/23 09:50:54;;;;;;;62.25;36.35;;;;;;;;;;5051380;28;20490;-56
2021/12/23 09:53:21;;;;;;;46.30;34.30;;;;;;;;;;5052593;28;20032;-57
2021/12/23 09:55:46;;;;;;;51.60;36.90;;;;;;;;;;5050809;28;20041;-56
2021/12/23 09:58:11;;;;;;;58.35;38.97;;;;;;;;;;5052737;28;20027;-57
2021/12/23 10:00:38;;;;;;;46.40;34.33;;;;;;;;;;5050630;28;20516;-57
2021/12/23 10:03:04;;;;;;;61.28;39.33;;;;;;;;;;5052907;28;20045;-57
2021/12/23 10:05:32;;;;;;;50.88;35.03;;;;;;;;;;5050256;28;20419;-57
2021/12/23 10:07:57;;;;;;;48.47;35.90;;;;;;;;;;5050759;28;20412;-57
2021/12/23 10:10:29;;;;;;;53.42;38.90;;;;;;;;;;5051023;28;20043;-57
2021/12/23 10:27:06;;;;;;;52.20;37.00;;;;;;;;;;5032437;28;20147;-57
2021/12/23 10:38:19;;;;;;;47.13;33.03;;;;;;;;;;5009501;28;20504;-57
2021/12/23 10:40:45;;;;;;;50.47;34.42;;;;;;;;;;5034022;28;20098;-57
2021/12/23 10:43:20;;;;;;;51.42;38.03;;;;;;;;;;5037281;28;20021;-57
2021/12/23 10:45:55;;;;;;;50.17;36.17;;;;;;;;;;5029749;28;20092;-57
2021/12/23 10:48:20;;;;;;;50.63;37.38;;;;;;;;;;5032026;28;20067;-57
2021/12/23 10:50:50;;;;;;;55.17;35.60;;;;;;;;;;5029858;28;20033;-57
2021/12/23 10:53:34;;;;;;;47.92;34.50;;;;;;;;;;5031588;28;20021;-57
2021/12/23 10:59:06;;;;;;;44.33;32.53;;;;;;;;;;5030300;28;20079;-57
2021/12/23 11:01:32;;;;;;;51.22;37.42;;;;;;;;;;5031507;28;20044;-57
2021/12/23 11:04:02;;;;;;;46.83;32.35;;;;;;;;;;5030138;28;20017;-57
2021/12/23 11:06:34;;;;;;;48.80;34.97;;;;;;;;;;5031332;28;20104;-57
2021/12/23 11:09:24;;;;;;;50.70;34.72;;;;;;;;;;5030328;28;20064;-57
2021/12/23 11:27:27;;;;;;;48.27;33.10;;;;;;;;;;5040040;28;20111;-57
2021/12/23 11:36:55;;;;;;;49.22;32.38;;;;;;;;;;5049223;28;20506;-57
2021/12/23 11:41:50;;;;;;;44.42;31.40;;;;;;;;;;5051070;28;20104;-57
2021/12/23 11:44:16;;;;;;;46.80;30.50;;;;;;;;;;5044421;28;20087;-58
2021/12/23 11:46:50;;;;;;;48.72;31.40;;;;;;;;;;5050814;28;20025;-57
2021/12/23 11:49:16;;;;;;;47.53;31.70;;;;;;;;;;5049621;28;20483;-57
2021/12/23 11:54:16;;;;;;;48.25;32.60;;;;;;;;;;5049806;28;20044;-58
2021/12/23 11:56:44;;;;;;;50.03;32.35;;;;;;;;;;5049434;28;20049;-58
2021/12/23 11:59:10;;;;;;;41.05;31.17;;;;;;;;;;5048821;28;20104;-57
2021/12/23 12:01:46;;;;;;;46.97;31.63;;;;;;;;;;5050734;28;20092;-57
2021/12/23 12:04:13;;;;;;;44.17;32.15;;;;;;;;;;5049602;28;20029;-57
2021/12/23 12:06:41;;;;;;;44.90;31.30;;;;;;;;;;5050061;28;20025;-57
2021/12/23 12:09:15;;;;;;;42.55;29.67;;;;;;;;;;5049546;28;20032;-57
2021/12/23 12:11:41;;;;;;;46.35;33.72;;;;;;;;;;5050620;28;20082;-57
2021/12/23 12:14:25;;;;;;;46.22;32.22;;;;;;;;;;5048942;28;20472;-57
2021/12/23 12:16:50;;;;;;;49.53;34.55;;;;;;;;;;5050620;28;20025;-57
2021/12/23 12:19:16;;;;;;;55.80;33.57;;;;;;;;;;5049241;28;20083;-57
2021/12/23 12:21:42;;;;;;;45.03;31.42;;;;;;;;;;5050039;28;20411;-57
2021/12/23 12:24:17;;;;;;;44.30;31.90;;;;;;;;;;5049080;28;20017;-57
2021/12/23 12:26:49;;;;;;;42.55;32.10;;;;;;;;;;5050283;28;20404;-57
2021/12/23 12:29:16;;;;;;;47.72;31.08;;;;;;;;;;5049958;28;20399;-57
2021/12/23 12:31:42;;;;;;;41.75;27.85;;;;;;;;;;5054007;28;20582;-57
2021/12/23 12:34:11;;;;;;;41.88;27.80;;;;;;;;;;5053161;28;20099;-57
2021/12/23 12:36:40;;;;;;;48.40;30.67;;;;;;;;;;5053791;28;20361;-57
2021/12/23 12:39:08;;;;;;;40.75;30.85;;;;;;;;;;5048071;28;20071;-58
2021/12/23 12:41:37;;;;;;;49.85;33.47;;;;;;;;;;5044810;28;20024;-56
2021/12/23 12:44:04;;;;;;;;;;;;;;;;;;5049085;28;20597;-57
2021/12/23 12:46:39;;;;;;;45.75;31.15;;;;;;;;;;5053523;28;19932;-57
2021/12/23 12:49:12;;;;;;;42.05;30.30;;;;;;;;;;5052376;28;20029;-57
2021/12/23 12:51:40;;;;;;;48.50;31.25;;;;;;;;;;5041473;28;20034;-57
2021/12/23 12:54:07;;;;;;;46.95;33.15;;;;;;;;;;5032847;28;20017;-57
2021/12/23 12:56:33;;;;;;;42.50;30.50;;;;;;;;;;5033840;28;20025;-57
2021/12/23 12:58:59;;;;;;;42.13;29.90;;;;;;;;;;5031987;28;20018;-57
2021/12/23 13:01:31;;;;;;;39.45;29.17;;;;;;;;;;5033760;28;20029;-57
2021/12/23 13:03:56;;;;;;;68.70;32.08;;;;;;;;;;5032604;28;20108;-56
2021/12/23 13:06:21;;;;;;;41.35;29.65;;;;;;;;;;5043789;28;20112;-57
2021/12/23 13:08:47;;;;;;;46.80;32.40;;;;;;;;;;5053535;28;20017;-57
2021/12/23 13:11:13;;;;;;;51.33;31.77;;;;;;;;;;5051793;28;20384;-57
2021/12/23 13:13:43;;;;;;;51.17;33.17;;;;;;;;;;5052161;28;20600;-57
2021/12/23 13:16:17;;;;;;;44.63;31.33;;;;;;;;;;5049255;28;20029;-57
2021/12/23 13:18:42;;;;;;;40.85;29.25;;;;;;;;;;5052040;28;20025;-57
2021/12/23 13:21:08;;;;;;;53.97;33.72;;;;;;;;;;5050539;28;20037;-57
2021/12/23 13:23:34;;;;;;;46.22;30.83;;;;;;;;;;5052429;28;20060;-57
2021/12/23 13:26:03;;;;;;;55.15;34.65;;;;;;;;;;5050638;28;20068;-57
2021/12/23 13:28:29;;;;;;;43.55;29.50;;;;;;;;;;5052800;28;20029;-57
2021/12/23 13:30:54;;;;;;;46.13;31.55;;;;;;;;;;5051875;28;20036;-57
2021/12/23 13:33:19;;;;;;;45.08;29.80;;;;;;;;;;5053165;28;20021;-57
2021/12/23 13:35:45;;;;;;;38.93;29.30;;;;;;;;;;5051062;28;20033;-57
2021/12/23 13:38:25;;;;;;;42.67;29.20;;;;;;;;;;5053360;28;20518;-57
2021/12/23 13:40:50;;;;;;;48.25;30.90;;;;;;;;;;5050725;28;20040;-57
2021/12/23 13:43:27;;;;;;;40.63;28.50;;;;;;;;;;5052811;28;20376;-57
2021/12/23 13:46:01;;;;;;;41.00;28.85;;;;;;;;;;5051556;28;20033;-57
2021/12/23 13:48:26;;;;;;;48.75;31.42;;;;;;;;;;5052843;28;20487;-57
2021/12/23 13:50:53;;;;;;;47.20;30.98;;;;;;;;;;5051030;28;20044;-56
2021/12/23 13:53:18;;;;;;;44.53;31.08;;;;;;;;;;5053065;28;20017;-57
2021/12/23 13:55:45;;;;;;;42.83;29.92;;;;;;;;;;5051159;28;20040;-57
2021/12/23 13:58:10;;;;;;;45.75;31.67;;;;;;;;;;5052389;28;20067;-57
2021/12/23 14:00:36;;;;;;;43.40;30.25;;;;;;;;;;5050890;28;20049;-57
2021/12/23 14:03:04;;;;;;;48.08;32.72;;;;;;;;;;5052597;28;20024;-57
2021/12/23 14:05:29;;;;;;;47.53;30.10;;;;;;;;;;5050805;28;20029;-57
2021/12/23 14:07:54;;;;;;;44.03;31.63;;;;;;;;;;5052838;28;20547;-57
2021/12/23 14:10:25;;;;;;;40.70;29.50;;;;;;;;;;5051206;28;20065;-57
2021/12/23 14:12:51;;;;;;;37.55;28.20;;;;;;;;;;5052094;28;20067;-56
2021/12/23 14:15:26;;;;;;;45.53;31.87;;;;;;;;;;5050900;28;20029;-57
2021/12/23 14:17:59;;;;;;;52.08;30.75;;;;;;;;;;5052430;28;20088;-56
2021/12/23 14:23:13;;;;;;;50.30;34.97;;;;;;;;;;5052601;28;20047;-56
2021/12/23 14:25:39;;;;;;;47.72;32.70;;;;;;;;;;5050088;28;20488;-57
2021/12/23 14:28:05;;;;;;;48.42;29.20;;;;;;;;;;5044668;28;20052;-56
2021/12/23 14:30:35;;;;;;;47.40;30.77;;;;;;;;;;5035362;28;20083;-57
2021/12/23 14:33:11;;;;;;;40.55;27.58;;;;;;;;;;5036665;28;20395;-56
2021/12/23 14:35:36;;;;;;;50.42;31.85;;;;;;;;;;5050169;28;20061;-56
2021/12/23 14:38:02;;;;;;;75.63;32.38;;;;;;;;;;5051778;28;20048;-57
2021/12/23 14:40:27;;;;;;;44.83;29.20;;;;;;;;;;5049523;28;20403;-56
2021/12/23 14:43:00;;;;;;;47.70;31.52;;;;;;;;;;5051903;28;20078;-57
2021/12/23 14:45:25;;;;;;;47.50;30.48;;;;;;;;;;5050115;28;20495;-57
2021/12/23 14:48:00;;;;;;;42.58;29.77;;;;;;;;;;5051829;28;20021;-57
2021/12/23 14:50:26;;;;;;;47.08;31.17;;;;;;;;;;5050168;28;20041;-56
2021/12/23 14:52:56;;;;;;;44.38;32.17;;;;;;;;;;5051567;28;20023;-57
2021/12/23 14:55:24;;;;;;;53.60;30.90;;;;;;;;;;5049804;28;20033;-57
2021/12/23 14:57:50;;;;;;;;;;;;;;;;;;5052211;28;20021;-57
2021/12/23 15:00:17;;;;;;;56.63;32.67;;;;;;;;;;5050005;28;19927;-56
2021/12/23 15:02:43;;;;;;;41.83;30.15;;;;;;;;;;5051036;28;20021;-57
2021/12/23 15:05:19;;;;;;;48.88;30.30;;;;;;;;;;5050119;28;20392;-57
2021/12/23 15:07:45;;;;;;;45.85;32.35;;;;;;;;;;5051387;28;20029;-57
2021/12/23 15:10:11;;;;;;;54.40;34.38;;;;;;;;;;5049735;28;20066;-57
2021/12/23 15:12:36;;;;;;;44.10;31.63;;;;;;;;;;5051048;28;20021;-57
2021/12/23 15:15:04;;;;;;;43.63;30.77;;;;;;;;;;5049852;28;20029;-57
2021/12/23 15:17:40;;;;;;;44.63;32.60;;;;;;;;;;5050896;28;20794;-57
2021/12/23 15:20:19;;;;;;;47.58;31.75;;;;;;;;;;5050019;28;20120;-57
2021/12/23 15:22:44;;;;;;;45.80;35.08;;;;;;;;;;5051219;28;20068;-56
2021/12/23 15:25:11;;;;;;;47.08;32.38;;;;;;;;;;5049478;28;20594;-56